createdAt,value
2022-09-24T00:00:36.282Z,68.46
2022-09-24T00:03:09.743Z,68.11
2022-09-24T00:05:43.041Z,68.27
2022-09-24T00:08:18.614Z,68.26
2022-09-24T00:10:51.464Z,68.17
2022-09-24T00:13:24.380Z,68.43
2022-09-24T00:15:57.452Z,68.74
2022-09-24T00:18:30.745Z,68.42
2022-09-24T00:21:13.270Z,68.45
2022-09-24T00:23:50.859Z,68.77
2022-09-24T00:26:42.185Z,68.91
2022-09-24T00:29:18.703Z,69.04
2022-09-24T00:31:53.262Z,69.21
2022-09-24T00:34:26.293Z,69.17
2022-09-24T00:36:59.175Z,69.16
2022-09-24T00:39:33.346Z,69.06
2022-09-24T00:42:06.387Z,69.35
2022-09-24T00:44:56.012Z,69.07
2022-09-24T00:47:35.833Z,69.03
2022-09-24T00:50:15.881Z,69.20
2022-09-24T00:52:53.153Z,68.93
2022-09-24T00:55:28.643Z,69.22
2022-09-24T00:58:06.218Z,69.14
2022-09-24T01:00:43.378Z,69.30
2022-09-24T01:03:20.282Z,69.25
2022-09-24T01:05:53.689Z,69.15
2022-09-24T01:08:26.656Z,69.28
2022-09-24T01:11:15.701Z,69.40
2022-09-24T01:14:27.135Z,69.75
2022-09-24T01:17:14.688Z,71.05
2022-09-24T01:20:27.967Z,71.10
2022-09-24T01:23:17.188Z,71.59
2022-09-24T01:26:03.185Z,71.89
2022-09-24T01:28:52.612Z,72.08
2022-09-24T01:31:31.733Z,72.05
2022-09-24T01:34:08.405Z,72.50
2022-09-24T01:36:43.680Z,72.94
2022-09-24T01:39:18.130Z,73.17
2022-09-24T01:41:53.867Z,73.64
2022-09-24T01:44:27.471Z,73.77
2022-09-24T01:47:02.090Z,73.95
2022-09-24T01:49:35.225Z,74.13
2022-09-24T01:52:14.614Z,74.75
2022-09-24T01:54:51.997Z,74.57
2022-09-24T01:57:30.301Z,74.93
2022-09-24T02:00:09.820Z,75.41
2022-09-24T02:02:57.864Z,75.73
2022-09-24T02:05:34.618Z,75.76
2022-09-24T02:08:11.089Z,76.11
2022-09-24T02:10:47.961Z,75.60
2022-09-24T02:13:26.467Z,75.88
2022-09-24T02:16:03.664Z,75.99
2022-09-24T02:18:41.768Z,76.38
2022-09-24T02:21:18.045Z,76.48
2022-09-24T02:23:56.449Z,76.44
2022-09-24T02:26:30.566Z,76.55
2022-09-24T02:29:04.156Z,76.53
2022-09-24T02:31:40.380Z,76.48
2022-09-24T02:34:25.940Z,76.54
2022-09-24T02:37:02.592Z,76.94
2022-09-24T02:39:36.388Z,76.75
2022-09-24T02:42:11.190Z,76.76
2022-09-24T02:44:44.102Z,76.94
2022-09-24T02:47:17.051Z,76.87
2022-09-24T02:49:55.467Z,76.94
2022-09-24T02:52:28.554Z,77.12
2022-09-24T02:55:01.532Z,76.88
2022-09-24T02:57:34.513Z,77.14
2022-09-24T03:00:08.794Z,77.15
2022-09-24T03:02:41.892Z,76.93
2022-09-24T03:05:18.174Z,76.96
2022-09-24T03:07:51.882Z,77.13
2022-09-24T03:10:25.136Z,77.22
2022-09-24T03:12:58.257Z,77.36
2022-09-24T03:15:31.629Z,77.09
2022-09-24T03:18:04.632Z,77.62
2022-09-24T03:20:38.935Z,77.51
2022-09-24T03:23:12.588Z,77.67
2022-09-24T03:25:46.794Z,77.86
2022-09-24T03:28:19.988Z,77.96
2022-09-24T03:31:00.974Z,78.16
2022-09-24T03:33:36.217Z,78.17
2022-09-24T03:36:13.097Z,78.31
2022-09-24T03:38:47.917Z,78.05
2022-09-24T03:41:21.149Z,78.08
2022-09-24T03:43:54.246Z,78.49
2022-09-24T03:46:28.895Z,78.49
2022-09-24T03:49:03.831Z,78.41
2022-09-24T03:51:38.418Z,78.77
2022-09-24T03:54:11.805Z,78.31
2022-09-24T03:56:45.760Z,78.37
2022-09-24T03:59:19.060Z,78.73
2022-09-24T04:01:52.243Z,78.35
2022-09-24T04:04:25.975Z,78.52
2022-09-24T04:07:00.647Z,78.31
2022-09-24T04:09:33.721Z,78.53
2022-09-24T04:12:07.056Z,78.71
2022-09-24T04:14:40.550Z,78.35
2022-09-24T04:17:14.639Z,78.51
2022-09-24T04:19:48.146Z,78.70
2022-09-24T04:22:22.810Z,78.64
2022-09-24T04:24:56.349Z,78.42
2022-09-24T04:27:33.058Z,78.72
2022-09-24T04:30:06.682Z,78.33
2022-09-24T04:32:41.525Z,78.47
2022-09-24T04:35:14.886Z,78.48
2022-09-24T04:37:50.024Z,78.63
2022-09-24T04:40:23.043Z,78.92
2022-09-24T04:42:55.990Z,78.69
2022-09-24T04:45:29.048Z,78.77
2022-09-24T04:48:02.445Z,78.61
2022-09-24T04:50:35.879Z,78.58
2022-09-24T04:53:10.216Z,78.57
2022-09-24T04:55:43.747Z,78.15
2022-09-24T04:58:17.383Z,78.35
2022-09-24T05:00:51.375Z,78.59
2022-09-24T05:03:24.541Z,78.39
2022-09-24T05:05:57.444Z,78.42
2022-09-24T05:08:31.725Z,78.70
2022-09-24T05:11:04.529Z,78.50
2022-09-24T05:13:37.875Z,78.58
2022-09-24T05:16:10.889Z,78.64
2022-09-24T05:18:44.164Z,78.56
2022-09-24T05:21:18.290Z,78.64
2022-09-24T05:23:53.466Z,78.46
2022-09-24T05:26:45.313Z,78.45
2022-09-24T05:29:18.458Z,78.89
2022-09-24T05:31:51.443Z,78.80
2022-09-24T05:34:24.682Z,78.96
2022-09-24T05:36:58.253Z,78.81
2022-09-24T05:39:34.142Z,78.77
2022-09-24T05:42:08.706Z,78.90
2022-09-24T05:44:43.023Z,79.48
2022-09-24T05:47:16.391Z,79.18
2022-09-24T05:49:49.771Z,79.11
2022-09-24T05:52:23.254Z,78.84
2022-09-24T05:54:58.065Z,78.73
2022-09-24T05:57:30.996Z,78.79
2022-09-24T06:00:04.712Z,79.25
2022-09-24T06:02:37.855Z,79.14
2022-09-24T06:05:11.999Z,79.11
2022-09-24T06:07:47.081Z,79.40
2022-09-24T06:10:23.078Z,79.22
2022-09-24T06:12:56.726Z,79.41
2022-09-24T06:15:29.832Z,79.27
2022-09-24T06:18:03.195Z,79.51
2022-09-24T06:20:36.609Z,79.27
2022-09-24T06:23:09.720Z,79.50
2022-09-24T06:25:48.528Z,79.50
2022-09-24T06:28:22.526Z,79.58
2022-09-24T06:30:55.616Z,79.75
2022-09-24T06:33:28.759Z,79.46
2022-09-24T06:36:03.154Z,79.41
2022-09-24T06:38:36.571Z,79.74
2022-09-24T06:41:12.849Z,79.46
2022-09-24T06:43:46.071Z,79.48
2022-09-24T06:46:19.126Z,79.76
2022-09-24T06:48:52.159Z,79.79
2022-09-24T06:51:25.283Z,79.71
2022-09-24T06:53:58.254Z,79.81
2022-09-24T06:56:32.712Z,80.06
2022-09-24T06:59:07.089Z,80.14
2022-09-24T07:01:40.393Z,80.07
2022-09-24T07:04:13.718Z,79.95
2022-09-24T07:07:05.324Z,80.20
2022-09-24T07:09:41.555Z,79.90
2022-09-24T07:12:17.887Z,80.01
2022-09-24T07:14:51.198Z,80.41
2022-09-24T07:17:27.847Z,80.20
2022-09-24T07:20:05.614Z,79.95
2022-09-24T07:22:43.211Z,79.37
2022-09-24T07:25:16.853Z,79.76
2022-09-24T07:27:51.659Z,79.39
2022-09-24T07:30:25.423Z,79.54
2022-09-24T07:33:00.035Z,79.06
2022-09-24T07:35:33.791Z,78.98
2022-09-24T07:38:08.628Z,78.84
2022-09-24T07:40:42.755Z,78.70
2022-09-24T07:43:17.855Z,78.46
2022-09-24T07:45:50.942Z,78.58
2022-09-24T07:48:24.830Z,78.68
2022-09-24T07:50:57.883Z,78.53
2022-09-24T07:53:31.566Z,78.28
2022-09-24T07:56:05.200Z,78.04
2022-09-24T07:58:39.641Z,78.09
2022-09-24T08:01:12.984Z,78.35
2022-09-24T08:03:47.319Z,78.59
2022-09-24T08:06:21.852Z,78.20
2022-09-24T08:08:56.224Z,78.30
2022-09-24T08:11:30.194Z,78.73
2022-09-24T08:14:05.034Z,78.55
2022-09-24T08:16:39.695Z,78.77
2022-09-24T08:19:14.326Z,79.06
2022-09-24T08:21:48.667Z,78.76
2022-09-24T08:24:22.096Z,78.87
2022-09-24T08:26:55.362Z,78.91
2022-09-24T08:29:30.104Z,78.95
2022-09-24T08:32:03.310Z,78.60
2022-09-24T08:34:38.614Z,78.71
2022-09-24T08:37:13.956Z,78.45
2022-09-24T08:39:46.971Z,78.71
2022-09-24T08:42:32.934Z,78.02
2022-09-24T08:45:28.991Z,78.28
2022-09-24T08:48:10.841Z,77.69
2022-09-24T08:50:47.487Z,77.94
2022-09-24T08:53:26.925Z,77.76
2022-09-24T08:56:01.692Z,77.82
2022-09-24T08:58:44.460Z,77.75
2022-09-24T09:01:31.923Z,77.74
2022-09-24T09:04:26.698Z,77.79
2022-09-24T09:07:15.966Z,77.91
2022-09-24T09:09:54.832Z,78.40
2022-09-24T09:12:36.202Z,77.91
2022-09-24T09:15:16.012Z,77.73
2022-09-24T09:17:54.219Z,77.44
2022-09-24T09:20:32.446Z,77.67
2022-09-24T09:23:13.946Z,77.88
2022-09-24T09:25:51.364Z,77.88
2022-09-24T09:28:27.006Z,78.07
2022-09-24T09:31:08.509Z,77.65
2022-09-24T09:33:54.072Z,77.92
2022-09-24T09:36:42.850Z,78.24
2022-09-24T09:39:31.863Z,77.91
2022-09-24T09:42:16.420Z,78.06
2022-09-24T09:44:49.848Z,78.26
2022-09-24T09:47:34.089Z,77.87
2022-09-24T09:50:21.184Z,77.27
2022-09-24T09:52:57.334Z,77.26
2022-09-24T09:55:35.911Z,77.29
2022-09-24T09:58:19.836Z,77.13
2022-09-24T10:00:54.317Z,77.11
2022-09-24T10:03:30.320Z,77.04
2022-09-24T10:06:07.730Z,76.80
2022-09-24T10:08:41.248Z,76.67
2022-09-24T10:11:17.823Z,76.68
2022-09-24T10:14:03.166Z,76.51
2022-09-24T10:16:39.682Z,76.10
2022-09-24T10:19:18.458Z,76.06
2022-09-24T10:21:57.212Z,76.16
2022-09-24T10:24:30.921Z,76.31
2022-09-24T10:27:12.921Z,75.97
2022-09-24T10:30:06.254Z,76.79
2022-09-24T10:32:40.766Z,77.17
2022-09-24T10:35:30.015Z,76.59
2022-09-24T10:38:23.049Z,76.85
2022-09-24T10:40:56.143Z,77.34
2022-09-24T10:43:29.519Z,77.25
2022-09-24T10:46:18.299Z,76.58
2022-09-24T10:49:00.635Z,76.28
2022-09-24T10:51:41.018Z,75.91
2022-09-24T10:54:32.650Z,75.53
2022-09-24T10:57:13.354Z,75.86
2022-09-24T10:59:58.046Z,75.72
2022-09-24T11:03:03.170Z,75.77
2022-09-24T11:05:43.176Z,75.95
2022-09-24T11:08:31.104Z,76.12
2022-09-24T11:11:32.415Z,75.80
2022-09-24T11:14:22.515Z,76.50
2022-09-24T11:17:13.432Z,75.81
2022-09-24T11:20:05.875Z,75.69
2022-09-24T11:22:57.548Z,75.59
2022-09-24T11:25:38.441Z,75.39
2022-09-24T11:28:31.217Z,75.38
2022-09-24T11:31:13.827Z,74.61
2022-09-24T11:34:07.366Z,74.99
2022-09-24T11:36:54.057Z,74.71
2022-09-24T11:39:40.481Z,74.18
2022-09-24T11:42:26.053Z,73.75
2022-09-24T11:45:27.300Z,74.10
2022-09-24T11:48:22.462Z,73.64
2022-09-24T11:51:08.682Z,73.69
2022-09-24T11:53:46.221Z,73.85
2022-09-24T11:56:24.802Z,73.87
2022-09-24T11:59:04.180Z,73.93
2022-09-24T12:01:41.158Z,74.00
2022-09-24T12:04:21.704Z,73.95
2022-09-24T12:07:04.516Z,73.81
2022-09-24T12:09:43.707Z,73.36
2022-09-24T12:12:22.955Z,72.84
2022-09-24T12:15:01.741Z,72.21
2022-09-24T12:17:42.550Z,71.93
2022-09-24T12:20:20.556Z,71.85
2022-09-24T12:23:00.226Z,71.74
2022-09-24T12:25:39.350Z,71.53
2022-09-24T12:28:14.977Z,71.36
2022-09-24T12:31:12.301Z,71.40
2022-09-24T12:33:54.378Z,71.10
2022-09-24T12:36:34.886Z,72.52
2022-09-24T12:39:12.092Z,71.34
2022-09-24T12:41:48.609Z,71.05
2022-09-24T12:44:27.044Z,70.81
2022-09-24T12:47:01.739Z,70.54
2022-09-24T12:49:38.500Z,70.26
2022-09-24T12:52:19.299Z,69.87
2022-09-24T12:54:59.681Z,70.44
2022-09-24T12:57:37.116Z,70.73
2022-09-24T13:00:36.133Z,70.67
2022-09-24T13:03:34.122Z,71.36
2022-09-24T13:06:23.183Z,71.50
2022-09-24T13:08:56.255Z,71.64
2022-09-24T13:11:32.185Z,71.25
2022-09-24T13:14:21.739Z,71.61
2022-09-24T13:16:57.855Z,71.86
2022-09-24T13:19:36.972Z,71.69
2022-09-24T13:22:23.934Z,72.04
2022-09-24T13:25:19.954Z,72.10
2022-09-24T13:28:04.336Z,72.04
2022-09-24T13:30:41.579Z,71.87
2022-09-24T13:33:24.094Z,71.35
2022-09-24T13:36:07.447Z,71.59
2022-09-24T13:38:49.649Z,71.27
2022-09-24T13:41:33.533Z,70.95
2022-09-24T13:44:14.903Z,71.23
2022-09-24T13:46:51.394Z,72.35
2022-09-24T13:49:26.232Z,72.43
2022-09-24T13:52:09.368Z,71.90
2022-09-24T13:54:52.209Z,71.37
2022-09-24T13:57:27.218Z,71.63
2022-09-24T14:00:06.762Z,71.06
2022-09-24T14:02:40.514Z,70.50
2022-09-24T14:05:18.684Z,70.43
2022-09-24T14:07:58.967Z,70.08
2022-09-24T14:10:36.030Z,70.04
2022-09-24T14:13:21.807Z,69.85
2022-09-24T14:15:57.325Z,69.86
2022-09-24T14:18:30.951Z,69.35
2022-09-24T14:21:10.370Z,69.48
2022-09-24T14:23:48.409Z,69.46
2022-09-24T14:26:31.350Z,70.34
2022-09-24T14:29:10.167Z,70.80
2022-09-24T14:31:46.191Z,71.17
2022-09-24T14:34:30.373Z,70.68
2022-09-24T14:37:10.615Z,69.96
2022-09-24T14:39:46.312Z,69.63
2022-09-24T14:42:25.233Z,69.37
2022-09-24T14:44:58.227Z,69.47
2022-09-24T14:47:32.999Z,69.78
2022-09-24T14:50:21.258Z,69.02
2022-09-24T14:52:57.785Z,69.18
2022-09-24T14:55:39.548Z,68.35
2022-09-24T14:58:26.985Z,68.67
2022-09-24T15:01:02.030Z,68.80
2022-09-24T15:03:41.179Z,68.35
2022-09-24T15:06:19.936Z,68.86
2022-09-24T15:08:57.430Z,69.12
2022-09-24T15:11:32.827Z,69.50
2022-09-24T15:14:25.155Z,69.75
2022-09-24T15:17:10.606Z,69.76
2022-09-24T15:19:44.159Z,70.29
2022-09-24T15:22:16.960Z,69.28
2022-09-24T15:24:51.089Z,68.87
2022-09-24T15:27:27.208Z,69.21
2022-09-24T15:30:04.757Z,69.31
2022-09-24T15:32:37.950Z,69.00
2022-09-24T15:35:15.082Z,69.03
2022-09-24T15:37:48.693Z,69.14
2022-09-24T15:40:23.564Z,69.60
2022-09-24T15:42:56.587Z,69.39
2022-09-24T15:45:31.014Z,68.89
2022-09-24T15:48:03.914Z,69.64
2022-09-24T15:50:39.821Z,69.16
2022-09-24T15:53:19.873Z,68.88
2022-09-24T15:55:55.142Z,68.58
2022-09-24T15:58:28.504Z,69.03
2022-09-24T16:01:02.882Z,68.22
2022-09-24T16:03:35.666Z,68.63
2022-09-24T16:06:12.192Z,68.14
2022-09-24T16:08:44.994Z,68.49
2022-09-24T16:11:17.786Z,68.55
2022-09-24T16:13:51.330Z,68.47
2022-09-24T16:16:25.540Z,68.43
2022-09-24T16:18:58.670Z,68.48
2022-09-24T16:21:31.445Z,68.45
2022-09-24T16:24:04.380Z,68.56
2022-09-24T16:26:37.450Z,68.65
2022-09-24T16:29:12.118Z,68.76
2022-09-24T16:31:46.917Z,69.16
2022-09-24T16:34:19.807Z,69.46
2022-09-24T16:36:52.563Z,69.50
2022-09-24T16:39:25.520Z,69.65
2022-09-24T16:41:58.360Z,69.75
2022-09-24T16:44:31.254Z,69.72
2022-09-24T16:47:05.580Z,69.84
2022-09-24T16:49:38.581Z,70.33
2022-09-24T16:52:11.429Z,70.64
2022-09-24T16:54:44.346Z,70.78
2022-09-24T16:57:17.208Z,70.70
2022-09-24T16:59:50.022Z,70.82
2022-09-24T17:02:24.452Z,70.92
2022-09-24T17:04:59.533Z,70.91
2022-09-24T17:07:34.548Z,71.28
2022-09-24T17:10:17.040Z,71.41
2022-09-24T17:12:51.415Z,71.31
2022-09-24T17:15:26.312Z,71.38
2022-09-24T17:18:00.480Z,71.51
2022-09-24T17:20:33.391Z,71.75
2022-09-24T17:23:06.522Z,71.92
2022-09-24T17:25:39.679Z,71.98
2022-09-24T17:28:12.455Z,72.38
2022-09-24T17:30:46.178Z,72.23
2022-09-24T17:33:42.199Z,71.96
2022-09-24T17:36:15.994Z,72.10
2022-09-24T17:38:48.992Z,72.19
2022-09-24T17:41:22.583Z,72.19
2022-09-24T17:43:58.726Z,72.17
2022-09-24T17:46:35.558Z,72.34
2022-09-24T17:49:11.289Z,72.34
2022-09-24T17:51:46.552Z,72.06
2022-09-24T17:54:23.276Z,72.10
2022-09-24T17:56:56.463Z,72.14
2022-09-24T17:59:29.612Z,72.19
2022-09-24T18:02:06.986Z,72.28
2022-09-24T18:04:41.514Z,72.62
2022-09-24T18:07:14.618Z,72.55
2022-09-24T18:09:48.146Z,72.57
2022-09-24T18:12:21.078Z,72.85
2022-09-24T18:14:54.373Z,73.15
2022-09-24T18:17:27.365Z,73.13
2022-09-24T18:20:01.561Z,73.52
2022-09-24T18:22:34.373Z,73.54
2022-09-24T18:25:08.285Z,73.85
2022-09-24T18:27:41.658Z,74.22
2022-09-24T18:30:15.681Z,74.15
2022-09-24T18:32:48.747Z,74.77
2022-09-24T18:35:22.982Z,74.90
2022-09-24T18:37:56.081Z,74.82
2022-09-24T18:40:29.408Z,75.09
2022-09-24T18:43:02.828Z,74.89
2022-09-24T18:45:36.160Z,75.09
2022-09-24T18:48:09.445Z,75.40
2022-09-24T18:50:46.280Z,75.91
2022-09-24T18:53:19.139Z,75.45
2022-09-24T18:55:52.362Z,76.03
2022-09-24T18:58:25.388Z,76.29
2022-09-24T19:00:59.957Z,76.07
2022-09-24T19:03:32.848Z,76.36
2022-09-24T19:06:08.527Z,76.24
2022-09-24T19:08:41.846Z,76.58
2022-09-24T19:11:17.539Z,76.54
2022-09-24T19:13:54.066Z,76.66
2022-09-24T19:16:27.386Z,76.83
2022-09-24T19:19:01.905Z,76.68
2022-09-24T19:21:36.697Z,76.52
2022-09-24T19:24:10.609Z,76.89
2022-09-24T19:26:44.842Z,76.78
2022-09-24T19:29:17.746Z,76.88
2022-09-24T19:31:51.900Z,76.81
2022-09-24T19:34:24.755Z,76.75
2022-09-24T19:36:59.065Z,76.36
2022-09-24T19:39:31.965Z,76.77
2022-09-24T19:42:04.966Z,76.57
2022-09-24T19:44:37.875Z,76.57
2022-09-24T19:47:10.996Z,76.50
2022-09-24T19:49:43.940Z,76.59
2022-09-24T19:52:18.129Z,76.70
2022-09-24T19:54:51.193Z,76.68
2022-09-24T19:57:23.996Z,76.79
2022-09-24T19:59:56.963Z,76.59
2022-09-24T20:02:31.174Z,76.33
2022-09-24T20:05:04.142Z,76.04
2022-09-24T20:07:38.496Z,76.12
2022-09-24T20:10:11.758Z,76.25
2022-09-24T20:12:46.697Z,76.21
2022-09-24T20:15:19.615Z,76.03
2022-09-24T20:17:53.670Z,76.23
2022-09-24T20:20:26.897Z,75.85
2022-09-24T20:23:01.809Z,76.00
2022-09-24T20:25:52.553Z,75.75
2022-09-24T20:28:25.497Z,75.82
2022-09-24T20:30:58.562Z,75.52
2022-09-24T20:33:31.445Z,75.87
2022-09-24T20:36:14.514Z,75.66
2022-09-24T20:38:49.548Z,75.79
2022-09-24T20:41:24.372Z,75.62
2022-09-24T20:43:57.178Z,75.97
2022-09-24T20:46:31.361Z,75.88
2022-09-24T20:49:06.406Z,76.04
2022-09-24T20:51:39.270Z,75.88
2022-09-24T20:54:14.785Z,75.65
2022-09-24T20:56:48.312Z,75.70
2022-09-24T20:59:21.246Z,75.79
2022-09-24T21:01:55.298Z,75.67
2022-09-24T21:04:28.236Z,75.90
2022-09-24T21:07:01.093Z,75.40
2022-09-24T21:09:35.379Z,75.49
2022-09-24T21:12:09.684Z,74.82
2022-09-24T21:14:42.456Z,74.80
2022-09-24T21:17:15.432Z,74.64
2022-09-24T21:19:48.629Z,74.41
2022-09-24T21:22:21.697Z,74.32
2022-09-24T21:24:55.927Z,74.15
2022-09-24T21:27:28.749Z,74.22
2022-09-24T21:30:01.534Z,74.21
2022-09-24T21:32:36.178Z,74.50
2022-09-24T21:35:09.726Z,74.50
2022-09-24T21:37:42.666Z,74.41
2022-09-24T21:40:19.327Z,74.45
2022-09-24T21:42:52.440Z,74.48
2022-09-24T21:45:26.637Z,74.55
2022-09-24T21:48:00.379Z,74.37
2022-09-24T21:50:38.167Z,74.52
2022-09-24T21:53:13.062Z,74.54
2022-09-24T21:55:49.163Z,74.40
2022-09-24T21:58:22.317Z,74.64
2022-09-24T22:00:55.228Z,74.65
2022-09-24T22:03:28.274Z,74.39
2022-09-24T22:06:03.632Z,74.62
2022-09-24T22:08:36.509Z,74.77
2022-09-24T22:11:12.675Z,74.65
2022-09-24T22:13:47.963Z,74.76
2022-09-24T22:16:23.223Z,75.21
2022-09-24T22:18:56.726Z,75.30
2022-09-24T22:21:29.546Z,75.46
2022-09-24T22:24:02.889Z,75.31
2022-09-24T22:26:37.286Z,75.34
2022-09-24T22:29:10.286Z,75.30
2022-09-24T22:31:44.869Z,75.48
2022-09-24T22:34:36.030Z,75.63
2022-09-24T22:37:08.894Z,75.70
2022-09-24T22:39:42.003Z,75.76
2022-09-24T22:42:16.182Z,76.26
2022-09-24T22:44:50.055Z,76.52
2022-09-24T22:47:23.071Z,76.80
2022-09-24T22:49:56.151Z,77.13
2022-09-24T22:52:29.849Z,77.28
2022-09-24T22:55:03.343Z,77.32
2022-09-24T22:57:37.994Z,77.67
2022-09-24T23:00:15.356Z,77.91
2022-09-24T23:02:48.707Z,77.91
2022-09-24T23:05:21.539Z,78.04
2022-09-24T23:07:54.430Z,77.98
2022-09-24T23:10:28.165Z,78.16
2022-09-24T23:13:02.581Z,78.06
2022-09-24T23:15:35.677Z,78.00
2022-09-24T23:18:08.513Z,77.55
2022-09-24T23:20:41.335Z,77.86
2022-09-24T23:23:14.106Z,77.80
2022-09-24T23:25:47.538Z,77.72
2022-09-24T23:28:21.751Z,77.60
2022-09-24T23:31:01.924Z,77.46
2022-09-24T23:33:35.860Z,77.22
2022-09-24T23:36:10.910Z,77.45
2022-09-24T23:38:43.957Z,77.00
2022-09-24T23:41:18.533Z,77.20
2022-09-24T23:43:53.287Z,76.89
2022-09-24T23:46:26.747Z,77.05
2022-09-24T23:48:59.596Z,76.82
2022-09-24T23:51:32.533Z,76.70
2022-09-24T23:54:05.887Z,76.84
2022-09-24T23:56:38.822Z,76.57
2022-09-24T23:59:14.123Z,76.83
